»·PEaware :: WAT306 KSEA-KSFO

WAT306 :: KSEA-KSFO

FLIGHT INFORMATION

Flight Status: Arrived
Operator:
Walker Air Transport
More flights by this operator :: More flights under this callsign
Pilot: Ethan S. (29221)
Aircraft: DASSAULT AVIATION FALCON 50
(FA50)
More flights by this aircraft type
Origin: KSEA Seattle-Tacoma Intl
United States
Destination: KSFO San Francisco Intl
United States
More flights between these airports :: More routes between these airports
Route: HAROB6 ERAVE Q1 ETCHY MLBEC BDEGA3
File this flight plan on PilotEdge
Remarks:
Altitude:
(Current/Filed)
41,000ft
Speed:
(Current/Filed)
480kts
Departed: 03-Feb-21 05:42 PM
Arrived: 03-Feb-21 07:05 PM
Distance/Time
Traveled:
589nm/1:23
Distance/Time
To Go:
Arrived

Flight Plot

Page will automatically refresh every two minutes.

Flight plan parsing failed; only flown route is shown


Map Options




Map Legend


Flown Route
Filed Route
Departure Airport
Arrival Airport
Navaid (VOR, NDB)
Fix

Horizontal Profiles

Position Reports

Time Latitude Longitude Heading Altitude Ground
Speed
03-Feb-21 17:14 47.439156 -122.315255 55 354ft 0kts
03-Feb-21 17:15 47.439156 -122.315255 55 354ft 0kts
03-Feb-21 17:16 47.439156 -122.315255 55 354ft 0kts
03-Feb-21 17:17 47.439156 -122.315255 55 354ft 0kts
03-Feb-21 17:18 47.439156 -122.315255 55 354ft 0kts
03-Feb-21 17:19 47.439156 -122.315255 55 354ft 0kts
03-Feb-21 17:20 47.439156 -122.315255 55 354ft 0kts
03-Feb-21 17:21 47.439156 -122.315255 55 354ft 0kts
03-Feb-21 17:22 47.439156 -122.315255 55 354ft 0kts
03-Feb-21 17:23 47.439156 -122.315255 55 354ft 0kts
03-Feb-21 17:24 47.439156 -122.315255 55 354ft 0kts
03-Feb-21 17:25 47.439156 -122.315255 55 354ft 0kts
03-Feb-21 17:26 47.439156 -122.315255 55 354ft 0kts
03-Feb-21 17:27 47.439156 -122.315255 55 354ft 0kts
03-Feb-21 17:28 47.439156 -122.315255 55 354ft 0kts
03-Feb-21 17:29 47.439156 -122.315255 55 354ft 0kts
03-Feb-21 17:30 47.439156 -122.315255 55 354ft 0kts
03-Feb-21 17:31 47.439156 -122.315255 55 354ft 0kts
03-Feb-21 17:32 47.439156 -122.315254 55 354ft 0kts
03-Feb-21 17:33 47.439156 -122.315254 55 354ft 0kts
03-Feb-21 17:34 47.439737 -122.313662 20 359ft 12kts
03-Feb-21 17:35 47.443534 -122.313584 1 371ft 11kts
03-Feb-21 17:36 47.446855 -122.313553 0 387ft 13kts
03-Feb-21 17:37 47.450979 -122.313516 1 404ft 19kts
03-Feb-21 17:38 47.457061 -122.313445 0 400ft 22kts
03-Feb-21 17:39 47.463058 -122.313388 1 380ft 18kts
03-Feb-21 17:40 47.463696 -122.317015 270 338ft 10kts
03-Feb-21 17:41 47.439669 -122.318368 181 896ft 175kts
03-Feb-21 17:42 47.380969 -122.317250 179 4397ft 241kts
03-Feb-21 17:43 47.317413 -122.361553 247 8212ft 273kts
03-Feb-21 17:44 47.307867 -122.477207 274 11932ft 290kts
03-Feb-21 17:45 47.311294 -122.599138 275 14424ft 317kts
03-Feb-21 17:46 47.314779 -122.734923 272 16292ft 348kts
03-Feb-21 17:47 47.287999 -122.874899 254 18458ft 365kts
03-Feb-21 17:48 47.245708 -123.025107 246 21299ft 389kts
03-Feb-21 17:49 47.150090 -123.142695 225 23334ft 441kts
03-Feb-21 17:50 47.039787 -123.261874 226 25147ft 451kts
03-Feb-21 17:51 46.926952 -123.375211 213 26853ft 487kts
03-Feb-21 17:52 46.780431 -123.397067 183 28103ft 531kts
03-Feb-21 17:53 46.624401 -123.392659 183 29302ft 544kts
03-Feb-21 17:55 46.468471 -123.387710 184 32203ft 516kts
03-Feb-21 17:56 46.314144 -123.383081 184 33819ft 519kts
03-Feb-21 17:57 46.157768 -123.378246 185 35543ft 517kts
03-Feb-21 17:58 46.003031 -123.373515 185 37092ft 516kts
03-Feb-21 17:59 45.855297 -123.369032 185 38318ft 517kts
03-Feb-21 18:00 45.709441 -123.364609 184 39307ft 517kts
03-Feb-21 18:01 45.556457 -123.360004 185 40245ft 516kts
03-Feb-21 18:02 45.402539 -123.355401 184 41086ft 517kts
03-Feb-21 18:03 45.246504 -123.350843 184 41358ft 531kts
03-Feb-21 18:04 45.084568 -123.346095 184 41363ft 551kts
03-Feb-21 18:05 44.917897 -123.341143 183 41363ft 568kts
03-Feb-21 18:06 44.756620 -123.336352 183 41348ft 571kts
03-Feb-21 18:07 44.597431 -123.331690 182 41351ft 570kts
03-Feb-21 18:08 44.436091 -123.326628 182 41357ft 570kts
03-Feb-21 18:09 44.269010 -123.319665 182 41363ft 571kts
03-Feb-21 18:10 44.094336 -123.312640 182 41369ft 572kts
03-Feb-21 18:11 43.922083 -123.305802 182 41369ft 574kts
03-Feb-21 18:11 43.789623 -123.300574 182 41345ft 573kts
03-Feb-21 18:13 43.601309 -123.293181 182 41342ft 572kts
03-Feb-21 18:13 43.458246 -123.287605 182 41347ft 572kts
03-Feb-21 18:14 43.283822 -123.280846 182 41349ft 572kts
03-Feb-21 18:15 43.108038 -123.274065 182 41358ft 573kts
03-Feb-21 18:16 42.931037 -123.267270 181 41362ft 573kts
03-Feb-21 18:17 42.769669 -123.261090 180 41331ft 568kts
03-Feb-21 18:18 42.610676 -123.255062 180 41316ft 565kts
03-Feb-21 18:19 42.441193 -123.248673 180 41307ft 563kts
03-Feb-21 18:20 42.269933 -123.242376 180 41312ft 563kts
03-Feb-21 18:21 42.095879 -123.235991 180 41319ft 563kts
03-Feb-21 18:22 41.920448 -123.229588 180 41320ft 564kts
03-Feb-21 18:23 41.761679 -123.223818 180 41285ft 563kts
03-Feb-21 18:24 41.604985 -123.218142 180 41307ft 562kts
03-Feb-21 18:25 41.441550 -123.212501 180 41299ft 562kts
03-Feb-21 18:26 41.273582 -123.207030 181 41300ft 562kts
03-Feb-21 18:27 41.101243 -123.202877 181 41303ft 563kts
03-Feb-21 18:28 40.926069 -123.198490 180 41288ft 561kts
03-Feb-21 18:29 40.767928 -123.194528 179 41272ft 556kts
03-Feb-21 18:30 40.611199 -123.190613 180 41280ft 554kts
03-Feb-21 18:31 40.441584 -123.186423 179 41267ft 554kts
03-Feb-21 18:32 40.270340 -123.182189 180 41276ft 554kts
03-Feb-21 18:33 40.099109 -123.177951 179 41272ft 555kts
03-Feb-21 18:34 39.931572 -123.173723 179 41245ft 556kts
03-Feb-21 18:35 39.774098 -123.166167 178 41244ft 555kts
03-Feb-21 18:36 39.619022 -123.158802 179 41235ft 554kts
03-Feb-21 18:37 39.456705 -123.151343 178 41238ft 554kts
03-Feb-21 18:38 39.295138 -123.143979 178 41238ft 554kts
03-Feb-21 18:39 39.135823 -123.134384 171 40271ft 563kts
03-Feb-21 18:40 38.988917 -123.051802 145 37252ft 543kts
03-Feb-21 18:41 38.855174 -122.957256 161 34208ft 512kts
03-Feb-21 18:42 38.720625 -122.913238 170 31132ft 470kts
03-Feb-21 18:43 38.594291 -122.875880 170 28060ft 440kts
03-Feb-21 18:44 38.475171 -122.840807 170 25368ft 421kts
03-Feb-21 18:45 38.359855 -122.806974 170 23135ft 413kts
03-Feb-21 18:46 38.243947 -122.773058 169 20889ft 405kts
03-Feb-21 18:47 38.130130 -122.739924 169 18697ft 394kts
03-Feb-21 18:48 38.019948 -122.707967 168 16526ft 386kts
03-Feb-21 18:49 37.914520 -122.676699 162 15102ft 361kts
03-Feb-21 18:50 37.829804 -122.599565 138 13152ft 356kts
03-Feb-21 18:51 37.754078 -122.519044 139 11457ft 334kts
03-Feb-21 18:52 37.697561 -122.434063 118 10984ft 280kts
03-Feb-21 18:53 37.662872 -122.349369 113 10626ft 271kts
03-Feb-21 18:54 37.627970 -122.258151 113 8948ft 270kts
03-Feb-21 18:55 37.596285 -122.172893 113 7523ft 262kts
03-Feb-21 18:56 37.567222 -122.091556 114 6143ft 256kts
03-Feb-21 18:57 37.516168 -122.091612 259 4837ft 212kts
03-Feb-21 18:58 37.529928 -122.161984 302 3414ft 207kts
03-Feb-21 18:59 37.555642 -122.219516 296 2491ft 122kts
03-Feb-21 19:00 37.572548 -122.259681 296 1773ft 121kts
03-Feb-21 19:01 37.588895 -122.298523 296 1094ft 124kts
03-Feb-21 19:02 37.605058 -122.336969 296 419ft 121kts
03-Feb-21 19:03 37.619411 -122.371176 299 13ft 66kts
03-Feb-21 19:04 37.622087 -122.375894 49 21ft 7kts
03-Feb-21 19:05 37.623188 -122.376462 299 20ft 7kts
03-Feb-21 19:06 37.624627 -122.379877 298 24ft 11kts
03-Feb-21 19:07 37.626604 -122.384523 319 17ft 12kts
03-Feb-21 19:08 37.627757 -122.384458 155 15ft 0kts
03-Feb-21 19:09 37.627757 -122.384458 155 15ft 0kts
03-Feb-21 19:10 37.627757 -122.384458 155 15ft 0kts
03-Feb-21 19:11 37.627757 -122.384458 155 15ft 0kts
03-Feb-21 19:12 37.627757 -122.384458 155 15ft 0kts
03-Feb-21 19:13 37.627757 -122.384458 155 15ft 0kts
03-Feb-21 19:14 37.627757 -122.384458 155 15ft 0kts
03-Feb-21 19:15 37.627757 -122.384458 155 15ft 0kts
03-Feb-21 19:16 37.627757 -122.384458 155 15ft 0kts
03-Feb-21 19:17 37.627757 -122.384458 155 15ft 0kts
03-Feb-21 19:18 37.627757 -122.384458 155 15ft 0kts

Navigation Log

Ident Type
Flight plan parsing failed, navigation log unavailable